sensor_id;sensor_type;location;lat;lon;timestamp;P1;durP1;ratioP1;P2;durP2;ratioP2
16037;SDS011;8123;50.906;6.172;2023-05-10T00:01:22;25.70;;;13.33;;
16037;SDS011;8123;50.906;6.172;2023-05-10T00:03:48;17.87;;;12.33;;
16037;SDS011;8123;50.906;6.172;2023-05-10T00:06:14;24.03;;;12.90;;
16037;SDS011;8123;50.906;6.172;2023-05-10T00:08:39;16.50;;;11.17;;
16037;SDS011;8123;50.906;6.172;2023-05-10T00:11:05;16.77;;;11.37;;
16037;SDS011;8123;50.906;6.172;2023-05-10T00:13:31;18.93;;;12.00;;
16037;SDS011;8123;50.906;6.172;2023-05-10T00:15:57;15.90;;;11.37;;
16037;SDS011;8123;50.906;6.172;2023-05-10T00:18:22;24.87;;;12.07;;
16037;SDS011;8123;50.906;6.172;2023-05-10T00:20:48;16.50;;;11.33;;
16037;SDS011;8123;50.906;6.172;2023-05-10T00:23:14;19.57;;;11.63;;
16037;SDS011;8123;50.906;6.172;2023-05-10T00:25:39;20.03;;;12.80;;
16037;SDS011;8123;50.906;6.172;2023-05-10T00:28:05;17.00;;;11.30;;
16037;SDS011;8123;50.906;6.172;2023-05-10T00:30:31;16.70;;;10.53;;
16037;SDS011;8123;50.906;6.172;2023-05-10T00:32:56;16.20;;;10.70;;
16037;SDS011;8123;50.906;6.172;2023-05-10T00:35:22;24.50;;;11.50;;
16037;SDS011;8123;50.906;6.172;2023-05-10T00:37:48;17.00;;;10.40;;
16037;SDS011;8123;50.906;6.172;2023-05-10T00:40:13;18.23;;;10.77;;
16037;SDS011;8123;50.906;6.172;2023-05-10T00:42:39;15.40;;;10.93;;
16037;SDS011;8123;50.906;6.172;2023-05-10T00:45:06;18.27;;;11.73;;
16037;SDS011;8123;50.906;6.172;2023-05-10T00:47:33;23.53;;;14.40;;
16037;SDS011;8123;50.906;6.172;2023-05-10T00:49:59;31.03;;;15.00;;
16037;SDS011;8123;50.906;6.172;2023-05-10T00:52:28;27.10;;;15.73;;
16037;SDS011;8123;50.906;6.172;2023-05-10T00:54:55;24.87;;;15.70;;
16037;SDS011;8123;50.906;6.172;2023-05-10T00:57:21;29.30;;;17.10;;
16037;SDS011;8123;50.906;6.172;2023-05-10T00:59:47;29.93;;;18.00;;
16037;SDS011;8123;50.906;6.172;2023-05-10T01:02:13;31.03;;;18.07;;
16037;SDS011;8123;50.906;6.172;2023-05-10T01:04:39;43.03;;;19.33;;
16037;SDS011;8123;50.906;6.172;2023-05-10T01:07:05;38.83;;;17.90;;
16037;SDS011;8123;50.906;6.172;2023-05-10T01:09:31;35.73;;;18.67;;
16037;SDS011;8123;50.906;6.172;2023-05-10T01:11:57;36.87;;;18.27;;
16037;SDS011;8123;50.906;6.172;2023-05-10T01:14:25;38.40;;;18.47;;
16037;SDS011;8123;50.906;6.172;2023-05-10T01:16:51;39.20;;;18.13;;
16037;SDS011;8123;50.906;6.172;2023-05-10T01:19:19;34.00;;;18.43;;
16037;SDS011;8123;50.906;6.172;2023-05-10T01:36:02;39.00;;;21.70;;
16037;SDS011;8123;50.906;6.172;2023-05-10T01:38:43;37.07;;;22.97;;
16037;SDS011;8123;50.906;6.172;2023-05-10T01:41:19;39.63;;;22.10;;
16037;SDS011;8123;50.906;6.172;2023-05-10T01:43:57;44.63;;;23.60;;
16037;SDS011;8123;50.906;6.172;2023-05-10T01:46:38;39.77;;;21.83;;
16037;SDS011;8123;50.906;6.172;2023-05-10T01:49:09;35.57;;;22.77;;
16037;SDS011;8123;50.906;6.172;2023-05-10T01:51:47;39.40;;;22.70;;
16037;SDS011;8123;50.906;6.172;2023-05-10T01:54:17;43.70;;;24.20;;
16037;SDS011;8123;50.906;6.172;2023-05-10T01:56:45;48.73;;;23.50;;
16037;SDS011;8123;50.906;6.172;2023-05-10T01:59:16;40.83;;;23.20;;
16037;SDS011;8123;50.906;6.172;2023-05-10T02:01:44;39.97;;;24.00;;
16037;SDS011;8123;50.906;6.172;2023-05-10T02:04:11;40.77;;;22.83;;
16037;SDS011;8123;50.906;6.172;2023-05-10T02:06:41;53.00;;;23.20;;
16037;SDS011;8123;50.906;6.172;2023-05-10T02:09:09;46.63;;;24.37;;
16037;SDS011;8123;50.906;6.172;2023-05-10T02:11:37;35.97;;;22.83;;
16037;SDS011;8123;50.906;6.172;2023-05-10T02:14:05;37.00;;;22.63;;
16037;SDS011;8123;50.906;6.172;2023-05-10T02:16:32;33.87;;;21.00;;
16037;SDS011;8123;50.906;6.172;2023-05-10T02:19:00;41.23;;;21.10;;
16037;SDS011;8123;50.906;6.172;2023-05-10T02:21:27;36.20;;;21.37;;
16037;SDS011;8123;50.906;6.172;2023-05-10T02:23:55;33.40;;;20.20;;
16037;SDS011;8123;50.906;6.172;2023-05-10T02:26:22;29.87;;;19.80;;
16037;SDS011;8123;50.906;6.172;2023-05-10T02:28:49;29.57;;;19.60;;
16037;SDS011;8123;50.906;6.172;2023-05-10T02:31:16;29.50;;;16.73;;
16037;SDS011;8123;50.906;6.172;2023-05-10T02:33:43;29.60;;;17.83;;
16037;SDS011;8123;50.906;6.172;2023-05-10T02:36:10;29.10;;;17.10;;
16037;SDS011;8123;50.906;6.172;2023-05-10T02:38:38;23.30;;;15.60;;
16037;SDS011;8123;50.906;6.172;2023-05-10T02:41:05;27.33;;;16.30;;
16037;SDS011;8123;50.906;6.172;2023-05-10T02:43:35;25.70;;;17.60;;
16037;SDS011;8123;50.906;6.172;2023-05-10T02:46:02;23.77;;;15.57;;
16037;SDS011;8123;50.906;6.172;2023-05-10T02:48:28;24.30;;;15.03;;
16037;SDS011;8123;50.906;6.172;2023-05-10T02:50:54;27.33;;;15.73;;
16037;SDS011;8123;50.906;6.172;2023-05-10T02:53:30;30.30;;;15.63;;
16037;SDS011;8123;50.906;6.172;2023-05-10T02:55:57;31.03;;;15.60;;
16037;SDS011;8123;50.906;6.172;2023-05-10T02:58:25;24.90;;;15.80;;
16037;SDS011;8123;50.906;6.172;2023-05-10T03:00:51;27.77;;;17.30;;
16037;SDS011;8123;50.906;6.172;2023-05-10T03:03:17;23.10;;;15.00;;
16037;SDS011;8123;50.906;6.172;2023-05-10T03:05:43;38.83;;;18.10;;
16037;SDS011;8123;50.906;6.172;2023-05-10T03:08:08;32.70;;;17.70;;
16037;SDS011;8123;50.906;6.172;2023-05-10T03:10:41;35.87;;;18.23;;
16037;SDS011;8123;50.906;6.172;2023-05-10T03:13:31;35.27;;;18.10;;
16037;SDS011;8123;50.906;6.172;2023-05-10T03:16:16;36.00;;;18.60;;
16037;SDS011;8123;50.906;6.172;2023-05-10T03:18:54;34.23;;;19.80;;
16037;SDS011;8123;50.906;6.172;2023-05-10T03:21:27;33.07;;;20.20;;
16037;SDS011;8123;50.906;6.172;2023-05-10T03:23:58;35.40;;;20.97;;
16037;SDS011;8123;50.906;6.172;2023-05-10T03:26:30;38.80;;;21.50;;
16037;SDS011;8123;50.906;6.172;2023-05-10T03:28:56;36.13;;;19.50;;
16037;SDS011;8123;50.906;6.172;2023-05-10T03:31:24;39.93;;;21.13;;
16037;SDS011;8123;50.906;6.172;2023-05-10T03:33:50;43.67;;;22.57;;
16037;SDS011;8123;50.906;6.172;2023-05-10T03:36:17;41.03;;;22.23;;
16037;SDS011;8123;50.906;6.172;2023-05-10T03:38:43;45.60;;;21.20;;
16037;SDS011;8123;50.906;6.172;2023-05-10T03:41:09;41.10;;;21.47;;
16037;SDS011;8123;50.906;6.172;2023-05-10T03:43:35;44.73;;;20.13;;
16037;SDS011;8123;50.906;6.172;2023-05-10T03:46:02;42.10;;;20.63;;
16037;SDS011;8123;50.906;6.172;2023-05-10T03:48:28;42.77;;;20.57;;
16037;SDS011;8123;50.906;6.172;2023-05-10T03:50:55;47.63;;;20.63;;
16037;SDS011;8123;50.906;6.172;2023-05-10T03:53:20;46.93;;;20.70;;
16037;SDS011;8123;50.906;6.172;2023-05-10T03:55:47;55.27;;;19.30;;
16037;SDS011;8123;50.906;6.172;2023-05-10T03:58:13;36.97;;;19.70;;
16037;SDS011;8123;50.906;6.172;2023-05-10T04:00:39;40.37;;;17.97;;
16037;SDS011;8123;50.906;6.172;2023-05-10T04:03:08;43.33;;;20.87;;
16037;SDS011;8123;50.906;6.172;2023-05-10T04:05:35;41.87;;;19.57;;
16037;SDS011;8123;50.906;6.172;2023-05-10T04:08:01;38.97;;;17.20;;
16037;SDS011;8123;50.906;6.172;2023-05-10T04:10:26;42.67;;;20.60;;
16037;SDS011;8123;50.906;6.172;2023-05-10T04:12:52;41.57;;;19.40;;
16037;SDS011;8123;50.906;6.172;2023-05-10T04:15:18;41.67;;;19.77;;
16037;SDS011;8123;50.906;6.172;2023-05-10T04:17:43;51.37;;;17.67;;
16037;SDS011;8123;50.906;6.172;2023-05-10T04:20:09;40.23;;;17.30;;
16037;SDS011;8123;50.906;6.172;2023-05-10T04:22:35;52.47;;;18.43;;
16037;SDS011;8123;50.906;6.172;2023-05-10T04:25:01;49.23;;;19.53;;
16037;SDS011;8123;50.906;6.172;2023-05-10T04:27:27;46.50;;;20.00;;
16037;SDS011;8123;50.906;6.172;2023-05-10T04:29:52;40.23;;;17.63;;
16037;SDS011;8123;50.906;6.172;2023-05-10T04:32:18;39.07;;;20.70;;
16037;SDS011;8123;50.906;6.172;2023-05-10T04:34:45;36.93;;;17.70;;
16037;SDS011;8123;50.906;6.172;2023-05-10T04:37:10;38.50;;;19.33;;
16037;SDS011;8123;50.906;6.172;2023-05-10T04:39:36;41.17;;;19.20;;
16037;SDS011;8123;50.906;6.172;2023-05-10T04:42:02;31.37;;;16.97;;
16037;SDS011;8123;50.906;6.172;2023-05-10T04:44:30;38.57;;;17.07;;
16037;SDS011;8123;50.906;6.172;2023-05-10T04:46:56;36.03;;;17.47;;
16037;SDS011;8123;50.906;6.172;2023-05-10T04:49:22;39.33;;;19.50;;
16037;SDS011;8123;50.906;6.172;2023-05-10T04:51:48;39.53;;;17.90;;
16037;SDS011;8123;50.906;6.172;2023-05-10T04:54:13;38.17;;;19.40;;
16037;SDS011;8123;50.906;6.172;2023-05-10T04:56:39;44.10;;;20.03;;
16037;SDS011;8123;50.906;6.172;2023-05-10T04:59:05;45.87;;;21.57;;
16037;SDS011;8123;50.906;6.172;2023-05-10T05:01:31;37.87;;;19.30;;
16037;SDS011;8123;50.906;6.172;2023-05-10T05:03:57;54.57;;;24.20;;
16037;SDS011;8123;50.906;6.172;2023-05-10T05:06:23;45.83;;;21.43;;
16037;SDS011;8123;50.906;6.172;2023-05-10T05:08:50;42.87;;;22.07;;
16037;SDS011;8123;50.906;6.172;2023-05-10T05:11:15;44.27;;;21.70;;
16037;SDS011;8123;50.906;6.172;2023-05-10T05:13:42;51.73;;;24.07;;
16037;SDS011;8123;50.906;6.172;2023-05-10T05:16:08;42.70;;;21.50;;
16037;SDS011;8123;50.906;6.172;2023-05-10T05:18:34;47.23;;;20.93;;
16037;SDS011;8123;50.906;6.172;2023-05-10T05:20:59;40.40;;;21.50;;
16037;SDS011;8123;50.906;6.172;2023-05-10T05:23:25;54.37;;;23.07;;
16037;SDS011;8123;50.906;6.172;2023-05-10T05:25:52;44.00;;;20.80;;
16037;SDS011;8123;50.906;6.172;2023-05-10T05:28:19;47.13;;;22.13;;
16037;SDS011;8123;50.906;6.172;2023-05-10T05:30:45;40.37;;;21.17;;
16037;SDS011;8123;50.906;6.172;2023-05-10T05:33:11;45.87;;;21.93;;
16037;SDS011;8123;50.906;6.172;2023-05-10T05:35:38;41.63;;;21.60;;
16037;SDS011;8123;50.906;6.172;2023-05-10T05:38:03;47.43;;;20.50;;
16037;SDS011;8123;50.906;6.172;2023-05-10T05:40:29;41.30;;;23.07;;
16037;SDS011;8123;50.906;6.172;2023-05-10T05:42:56;40.47;;;22.40;;
16037;SDS011;8123;50.906;6.172;2023-05-10T05:45:21;37.33;;;18.60;;
16037;SDS011;8123;50.906;6.172;2023-05-10T05:47:47;35.43;;;18.17;;
16037;SDS011;8123;50.906;6.172;2023-05-10T05:50:13;39.83;;;19.40;;
16037;SDS011;8123;50.906;6.172;2023-05-10T05:52:38;31.17;;;17.73;;
16037;SDS011;8123;50.906;6.172;2023-05-10T05:55:04;40.87;;;18.77;;
16037;SDS011;8123;50.906;6.172;2023-05-10T05:57:30;29.00;;;15.50;;
16037;SDS011;8123;50.906;6.172;2023-05-10T05:59:56;25.17;;;15.40;;
16037;SDS011;8123;50.906;6.172;2023-05-10T06:02:22;31.00;;;15.43;;
16037;SDS011;8123;50.906;6.172;2023-05-10T06:04:47;30.10;;;16.83;;
16037;SDS011;8123;50.906;6.172;2023-05-10T06:07:13;26.80;;;15.33;;
16037;SDS011;8123;50.906;6.172;2023-05-10T06:09:38;34.13;;;17.43;;
16037;SDS011;8123;50.906;6.172;2023-05-10T06:12:04;30.37;;;17.23;;
16037;SDS011;8123;50.906;6.172;2023-05-10T06:14:30;31.63;;;17.30;;
16037;SDS011;8123;50.906;6.172;2023-05-10T06:16:55;20.23;;;13.77;;
16037;SDS011;8123;50.906;6.172;2023-05-10T06:19:21;30.80;;;13.77;;
16037;SDS011;8123;50.906;6.172;2023-05-10T06:21:48;20.80;;;11.70;;
16037;SDS011;8123;50.906;6.172;2023-05-10T06:24:13;21.47;;;13.10;;
16037;SDS011;8123;50.906;6.172;2023-05-10T06:26:39;24.33;;;12.70;;
16037;SDS011;8123;50.906;6.172;2023-05-10T06:29:04;26.00;;;13.17;;
16037;SDS011;8123;50.906;6.172;2023-05-10T06:31:30;25.37;;;11.07;;
16037;SDS011;8123;50.906;6.172;2023-05-10T06:33:56;16.33;;;9.77;;
16037;SDS011;8123;50.906;6.172;2023-05-10T06:36:22;14.13;;;9.47;;
16037;SDS011;8123;50.906;6.172;2023-05-10T06:38:49;13.30;;;8.90;;
16037;SDS011;8123;50.906;6.172;2023-05-10T06:41:16;12.83;;;8.07;;
16037;SDS011;8123;50.906;6.172;2023-05-10T06:43:41;10.47;;;8.40;;
16037;SDS011;8123;50.906;6.172;2023-05-10T06:46:08;12.17;;;7.73;;
16037;SDS011;8123;50.906;6.172;2023-05-10T06:48:34;12.23;;;8.10;;
16037;SDS011;8123;50.906;6.172;2023-05-10T06:51:00;9.80;;;7.30;;
16037;SDS011;8123;50.906;6.172;2023-05-10T06:53:25;10.07;;;7.97;;
16037;SDS011;8123;50.906;6.172;2023-05-10T06:55:51;10.87;;;7.50;;
16037;SDS011;8123;50.906;6.172;2023-05-10T06:58:17;11.40;;;8.33;;
16037;SDS011;8123;50.906;6.172;2023-05-10T07:00:42;10.60;;;7.07;;
16037;SDS011;8123;50.906;6.172;2023-05-10T07:03:10;13.00;;;8.27;;
16037;SDS011;8123;50.906;6.172;2023-05-10T07:05:35;11.60;;;7.87;;
16037;SDS011;8123;50.906;6.172;2023-05-10T07:08:01;14.03;;;7.70;;
16037;SDS011;8123;50.906;6.172;2023-05-10T07:10:27;16.10;;;8.23;;
16037;SDS011;8123;50.906;6.172;2023-05-10T07:12:52;12.30;;;8.20;;
16037;SDS011;8123;50.906;6.172;2023-05-10T07:15:18;14.33;;;8.10;;
16037;SDS011;8123;50.906;6.172;2023-05-10T07:17:44;14.80;;;10.20;;
16037;SDS011;8123;50.906;6.172;2023-05-10T07:20:10;16.77;;;9.80;;
16037;SDS011;8123;50.906;6.172;2023-05-10T07:22:36;18.13;;;11.60;;
16037;SDS011;8123;50.906;6.172;2023-05-10T07:25:02;14.20;;;9.30;;
16037;SDS011;8123;50.906;6.172;2023-05-10T07:27:27;16.87;;;11.10;;
16037;SDS011;8123;50.906;6.172;2023-05-10T07:29:53;16.37;;;9.97;;
16037;SDS011;8123;50.906;6.172;2023-05-10T07:32:19;18.17;;;11.20;;
16037;SDS011;8123;50.906;6.172;2023-05-10T07:34:45;19.70;;;11.40;;
16037;SDS011;8123;50.906;6.172;2023-05-10T07:37:11;20.30;;;12.00;;
16037;SDS011;8123;50.906;6.172;2023-05-10T07:39:37;23.40;;;12.97;;
16037;SDS011;8123;50.906;6.172;2023-05-10T07:42:02;24.83;;;13.20;;
16037;SDS011;8123;50.906;6.172;2023-05-10T07:44:28;46.80;;;13.30;;
16037;SDS011;8123;50.906;6.172;2023-05-10T07:46:53;34.90;;;16.30;;
16037;SDS011;8123;50.906;6.172;2023-05-10T07:49:20;51.50;;;20.47;;
16037;SDS011;8123;50.906;6.172;2023-05-10T07:51:49;51.00;;;19.80;;
16037;SDS011;8123;50.906;6.172;2023-05-10T07:54:15;50.77;;;22.33;;
16037;SDS011;8123;50.906;6.172;2023-05-10T07:56:40;57.10;;;22.40;;
16037;SDS011;8123;50.906;6.172;2023-05-10T07:59:14;55.80;;;21.27;;
16037;SDS011;8123;50.906;6.172;2023-05-10T08:01:40;57.77;;;22.23;;
16037;SDS011;8123;50.906;6.172;2023-05-10T08:04:06;61.57;;;24.67;;
16037;SDS011;8123;50.906;6.172;2023-05-10T08:06:32;59.53;;;23.83;;
16037;SDS011;8123;50.906;6.172;2023-05-10T08:08:58;60.17;;;23.37;;
16037;SDS011;8123;50.906;6.172;2023-05-10T08:11:23;68.47;;;26.73;;
16037;SDS011;8123;50.906;6.172;2023-05-10T08:13:49;68.60;;;24.77;;
16037;SDS011;8123;50.906;6.172;2023-05-10T08:16:16;67.83;;;25.87;;
16037;SDS011;8123;50.906;6.172;2023-05-10T08:21:12;55.40;;;19.63;;
16037;SDS011;8123;50.906;6.172;2023-05-10T08:26:08;68.40;;;24.00;;
16037;SDS011;8123;50.906;6.172;2023-05-10T08:28:34;62.70;;;24.73;;
16037;SDS011;8123;50.906;6.172;2023-05-10T08:31:00;69.00;;;25.13;;
16037;SDS011;8123;50.906;6.172;2023-05-10T08:33:25;63.80;;;24.90;;
16037;SDS011;8123;50.906;6.172;2023-05-10T08:35:51;76.40;;;25.63;;
16037;SDS011;8123;50.906;6.172;2023-05-10T08:38:17;68.00;;;26.30;;
16037;SDS011;8123;50.906;6.172;2023-05-10T08:40:43;59.97;;;25.00;;
16037;SDS011;8123;50.906;6.172;2023-05-10T08:43:10;54.00;;;23.53;;
16037;SDS011;8123;50.906;6.172;2023-05-10T08:45:40;69.93;;;23.67;;
16037;SDS011;8123;50.906;6.172;2023-05-10T08:48:08;72.77;;;26.07;;
16037;SDS011;8123;50.906;6.172;2023-05-10T08:50:35;57.23;;;23.13;;
16037;SDS011;8123;50.906;6.172;2023-05-10T08:53:04;55.07;;;22.53;;
16037;SDS011;8123;50.906;6.172;2023-05-10T08:55:40;58.23;;;23.33;;
16037;SDS011;8123;50.906;6.172;2023-05-10T08:58:07;51.47;;;21.87;;
16037;SDS011;8123;50.906;6.172;2023-05-10T09:00:33;34.53;;;16.70;;
16037;SDS011;8123;50.906;6.172;2023-05-10T09:03:00;46.43;;;18.10;;
16037;SDS011;8123;50.906;6.172;2023-05-10T09:05:26;30.20;;;13.97;;
16037;SDS011;8123;50.906;6.172;2023-05-10T09:07:52;22.00;;;11.37;;
16037;SDS011;8123;50.906;6.172;2023-05-10T09:10:18;16.80;;;9.57;;
16037;SDS011;8123;50.906;6.172;2023-05-10T09:12:44;21.37;;;10.23;;
16037;SDS011;8123;50.906;6.172;2023-05-10T09:15:11;15.57;;;10.50;;
16037;SDS011;8123;50.906;6.172;2023-05-10T09:17:40;14.43;;;8.73;;
16037;SDS011;8123;50.906;6.172;2023-05-10T09:20:06;16.97;;;9.63;;
16037;SDS011;8123;50.906;6.172;2023-05-10T09:22:32;18.10;;;9.00;;
16037;SDS011;8123;50.906;6.172;2023-05-10T09:25:12;14.47;;;8.43;;
16037;SDS011;8123;50.906;6.172;2023-05-10T09:27:40;16.63;;;8.33;;
16037;SDS011;8123;50.906;6.172;2023-05-10T09:30:09;15.90;;;8.80;;
16037;SDS011;8123;50.906;6.172;2023-05-10T09:32:43;15.87;;;9.67;;
16037;SDS011;8123;50.906;6.172;2023-05-10T09:35:10;15.27;;;8.67;;
16037;SDS011;8123;50.906;6.172;2023-05-10T09:37:40;17.53;;;8.90;;
16037;SDS011;8123;50.906;6.172;2023-05-10T09:40:10;16.17;;;9.27;;
16037;SDS011;8123;50.906;6.172;2023-05-10T09:42:37;15.90;;;9.37;;
16037;SDS011;8123;50.906;6.172;2023-05-10T09:45:04;12.90;;;8.17;;
16037;SDS011;8123;50.906;6.172;2023-05-10T09:47:33;10.93;;;7.10;;
16037;SDS011;8123;50.906;6.172;2023-05-10T09:50:00;14.83;;;8.20;;
16037;SDS011;8123;50.906;6.172;2023-05-10T09:52:30;13.00;;;7.27;;
16037;SDS011;8123;50.906;6.172;2023-05-10T09:55:12;11.97;;;6.67;;
16037;SDS011;8123;50.906;6.172;2023-05-10T09:57:37;11.80;;;7.33;;
16037;SDS011;8123;50.906;6.172;2023-05-10T10:00:04;13.47;;;7.23;;
16037;SDS011;8123;50.906;6.172;2023-05-10T10:02:30;11.63;;;7.40;;
16037;SDS011;8123;50.906;6.172;2023-05-10T10:04:56;13.27;;;8.10;;
16037;SDS011;8123;50.906;6.172;2023-05-10T10:07:23;12.63;;;7.90;;
16037;SDS011;8123;50.906;6.172;2023-05-10T10:09:52;9.40;;;6.60;;
16037;SDS011;8123;50.906;6.172;2023-05-10T10:12:20;12.60;;;8.03;;
16037;SDS011;8123;50.906;6.172;2023-05-10T10:14:46;10.30;;;7.03;;
16037;SDS011;8123;50.906;6.172;2023-05-10T10:17:13;14.40;;;7.40;;
16037;SDS011;8123;50.906;6.172;2023-05-10T10:19:38;11.10;;;7.40;;
16037;SDS011;8123;50.906;6.172;2023-05-10T10:22:05;11.27;;;7.40;;
16037;SDS011;8123;50.906;6.172;2023-05-10T10:24:31;9.30;;;6.30;;
16037;SDS011;8123;50.906;6.172;2023-05-10T10:26:59;10.90;;;6.60;;
16037;SDS011;8123;50.906;6.172;2023-05-10T10:29:52;11.77;;;7.40;;
16037;SDS011;8123;50.906;6.172;2023-05-10T10:32:42;10.63;;;7.10;;
16037;SDS011;8123;50.906;6.172;2023-05-10T10:35:26;12.20;;;6.77;;
16037;SDS011;8123;50.906;6.172;2023-05-10T10:37:54;11.40;;;6.80;;
16037;SDS011;8123;50.906;6.172;2023-05-10T10:42:48;11.27;;;7.40;;
16037;SDS011;8123;50.906;6.172;2023-05-10T10:45:15;9.30;;;6.97;;
16037;SDS011;8123;50.906;6.172;2023-05-10T10:47:41;9.40;;;6.67;;
16037;SDS011;8123;50.906;6.172;2023-05-10T10:50:08;6.77;;;5.47;;
16037;SDS011;8123;50.906;6.172;2023-05-10T10:52:37;6.40;;;5.60;;
16037;SDS011;8123;50.906;6.172;2023-05-10T10:55:11;9.57;;;7.53;;
16037;SDS011;8123;50.906;6.172;2023-05-10T10:57:55;8.23;;;6.20;;
16037;SDS011;8123;50.906;6.172;2023-05-10T11:00:31;8.00;;;6.80;;
16037;SDS011;8123;50.906;6.172;2023-05-10T11:03:11;10.17;;;7.20;;
16037;SDS011;8123;50.906;6.172;2023-05-10T11:08:11;7.80;;;5.90;;
16037;SDS011;8123;50.906;6.172;2023-05-10T11:13:44;9.13;;;6.20;;
16037;SDS011;8123;50.906;6.172;2023-05-10T11:18:55;7.17;;;6.03;;
16037;SDS011;8123;50.906;6.172;2023-05-10T11:21:49;6.43;;;5.63;;
16037;SDS011;8123;50.906;6.172;2023-05-10T11:24:17;6.13;;;5.43;;
16037;SDS011;8123;50.906;6.172;2023-05-10T11:26:45;9.77;;;6.30;;
16037;SDS011;8123;50.906;6.172;2023-05-10T11:29:12;6.07;;;5.17;;
16037;SDS011;8123;50.906;6.172;2023-05-10T11:31:42;8.07;;;5.60;;
16037;SDS011;8123;50.906;6.172;2023-05-10T11:34:12;5.83;;;5.23;;
16037;SDS011;8123;50.906;6.172;2023-05-10T11:36:55;5.30;;;4.80;;
16037;SDS011;8123;50.906;6.172;2023-05-10T11:39:25;6.13;;;5.53;;
16037;SDS011;8123;50.906;6.172;2023-05-10T11:41:54;4.80;;;4.33;;
16037;SDS011;8123;50.906;6.172;2023-05-10T11:44:19;5.30;;;4.80;;
16037;SDS011;8123;50.906;6.172;2023-05-10T11:46:45;7.43;;;5.50;;
16037;SDS011;8123;50.906;6.172;2023-05-10T11:49:11;5.63;;;4.83;;
16037;SDS011;8123;50.906;6.172;2023-05-10T11:51:38;7.73;;;5.93;;
16037;SDS011;8123;50.906;6.172;2023-05-10T11:54:08;7.30;;;5.50;;
16037;SDS011;8123;50.906;6.172;2023-05-10T11:56:38;7.07;;;5.10;;
16037;SDS011;8123;50.906;6.172;2023-05-10T11:59:04;7.23;;;5.77;;
16037;SDS011;8123;50.906;6.172;2023-05-10T12:01:30;9.43;;;5.70;;
16037;SDS011;8123;50.906;6.172;2023-05-10T12:03:57;10.70;;;7.20;;
16037;SDS011;8123;50.906;6.172;2023-05-10T12:06:26;8.43;;;6.30;;
16037;SDS011;8123;50.906;6.172;2023-05-10T12:08:56;9.57;;;6.90;;
16037;SDS011;8123;50.906;6.172;2023-05-10T12:11:26;14.43;;;7.17;;
16037;SDS011;8123;50.906;6.172;2023-05-10T12:13:53;7.13;;;6.00;;
16037;SDS011;8123;50.906;6.172;2023-05-10T12:16:20;7.70;;;6.80;;
16037;SDS011;8123;50.906;6.172;2023-05-10T12:18:51;8.20;;;6.10;;
16037;SDS011;8123;50.906;6.172;2023-05-10T12:21:18;8.43;;;5.20;;
16037;SDS011;8123;50.906;6.172;2023-05-10T12:23:45;5.70;;;4.57;;
16037;SDS011;8123;50.906;6.172;2023-05-10T12:26:11;5.00;;;4.47;;
16037;SDS011;8123;50.906;6.172;2023-05-10T12:28:37;5.07;;;4.67;;
16037;SDS011;8123;50.906;6.172;2023-05-10T12:31:05;7.43;;;5.60;;
16037;SDS011;8123;50.906;6.172;2023-05-10T12:33:38;6.73;;;4.70;;
16037;SDS011;8123;50.906;6.172;2023-05-10T12:36:11;4.97;;;4.50;;
16037;SDS011;8123;50.906;6.172;2023-05-10T12:41:08;6.20;;;5.60;;
16037;SDS011;8123;50.906;6.172;2023-05-10T12:43:38;7.20;;;5.00;;
16037;SDS011;8123;50.906;6.172;2023-05-10T12:46:05;5.93;;;5.30;;
16037;SDS011;8123;50.906;6.172;2023-05-10T12:48:32;4.23;;;3.80;;
16037;SDS011;8123;50.906;6.172;2023-05-10T12:50:59;6.83;;;4.60;;
16037;SDS011;8123;50.906;6.172;2023-05-10T12:53:25;7.83;;;4.00;;
16037;SDS011;8123;50.906;6.172;2023-05-10T12:55:52;6.00;;;4.83;;
16037;SDS011;8123;50.906;6.172;2023-05-10T12:58:18;10.00;;;5.10;;
16037;SDS011;8123;50.906;6.172;2023-05-10T13:00:44;4.10;;;3.70;;
16037;SDS011;8123;50.906;6.172;2023-05-10T13:03:10;11.93;;;4.00;;
16037;SDS011;8123;50.906;6.172;2023-05-10T13:05:36;3.63;;;3.30;;
16037;SDS011;8123;50.906;6.172;2023-05-10T13:08:02;6.57;;;3.80;;
16037;SDS011;8123;50.906;6.172;2023-05-10T13:10:31;10.33;;;4.23;;
16037;SDS011;8123;50.906;6.172;2023-05-10T13:13:00;5.90;;;4.23;;
16037;SDS011;8123;50.906;6.172;2023-05-10T13:15:25;6.30;;;5.20;;
16037;SDS011;8123;50.906;6.172;2023-05-10T13:17:51;5.53;;;5.03;;
16037;SDS011;8123;50.906;6.172;2023-05-10T13:20:18;5.37;;;3.50;;
16037;SDS011;8123;50.906;6.172;2023-05-10T13:22:43;3.50;;;3.20;;
16037;SDS011;8123;50.906;6.172;2023-05-10T13:25:09;3.47;;;3.17;;
16037;SDS011;8123;50.906;6.172;2023-05-10T13:27:36;5.67;;;3.80;;
16037;SDS011;8123;50.906;6.172;2023-05-10T13:30:02;3.33;;;3.13;;
16037;SDS011;8123;50.906;6.172;2023-05-10T13:32:29;5.23;;;3.97;;
16037;SDS011;8123;50.906;6.172;2023-05-10T13:34:55;4.60;;;3.83;;
16037;SDS011;8123;50.906;6.172;2023-05-10T13:37:21;4.83;;;4.40;;
16037;SDS011;8123;50.906;6.172;2023-05-10T13:39:47;4.50;;;4.17;;
16037;SDS011;8123;50.906;6.172;2023-05-10T13:42:12;5.10;;;3.90;;
16037;SDS011;8123;50.906;6.172;2023-05-10T13:44:38;4.50;;;3.83;;
16037;SDS011;8123;50.906;6.172;2023-05-10T13:47:05;4.27;;;3.93;;
16037;SDS011;8123;50.906;6.172;2023-05-10T13:49:31;3.97;;;3.63;;
16037;SDS011;8123;50.906;6.172;2023-05-10T13:51:56;5.70;;;3.83;;
16037;SDS011;8123;50.906;6.172;2023-05-10T13:54:23;6.50;;;4.50;;
16037;SDS011;8123;50.906;6.172;2023-05-10T13:56:49;5.43;;;4.90;;
16037;SDS011;8123;50.906;6.172;2023-05-10T13:59:14;5.70;;;4.00;;
16037;SDS011;8123;50.906;6.172;2023-05-10T14:01:40;6.43;;;3.60;;
16037;SDS011;8123;50.906;6.172;2023-05-10T14:04:07;4.73;;;4.00;;
16037;SDS011;8123;50.906;6.172;2023-05-10T14:06:35;2.70;;;2.50;;
16037;SDS011;8123;50.906;6.172;2023-05-10T14:09:01;3.43;;;3.00;;
16037;SDS011;8123;50.906;6.172;2023-05-10T14:11:27;4.23;;;3.80;;
16037;SDS011;8123;50.906;6.172;2023-05-10T14:13:53;4.50;;;3.53;;
16037;SDS011;8123;50.906;6.172;2023-05-10T14:16:19;3.80;;;3.50;;
16037;SDS011;8123;50.906;6.172;2023-05-10T14:18:45;4.33;;;3.93;;
16037;SDS011;8123;50.906;6.172;2023-05-10T14:21:11;4.50;;;4.10;;
16037;SDS011;8123;50.906;6.172;2023-05-10T14:23:38;4.37;;;3.97;;
16037;SDS011;8123;50.906;6.172;2023-05-10T14:26:04;5.63;;;3.60;;
16037;SDS011;8123;50.906;6.172;2023-05-10T14:28:30;3.57;;;3.27;;
16037;SDS011;8123;50.906;6.172;2023-05-10T14:30:55;4.70;;;3.70;;
16037;SDS011;8123;50.906;6.172;2023-05-10T14:33:21;3.97;;;2.90;;
16037;SDS011;8123;50.906;6.172;2023-05-10T14:35:47;6.60;;;3.47;;
16037;SDS011;8123;50.906;6.172;2023-05-10T14:38:13;2.43;;;2.23;;
16037;SDS011;8123;50.906;6.172;2023-05-10T14:40:39;2.73;;;2.50;;
16037;SDS011;8123;50.906;6.172;2023-05-10T14:43:05;3.20;;;2.90;;
16037;SDS011;8123;50.906;6.172;2023-05-10T14:45:30;3.80;;;2.90;;
16037;SDS011;8123;50.906;6.172;2023-05-10T14:47:56;3.53;;;3.10;;
16037;SDS011;8123;50.906;6.172;2023-05-10T14:50:22;3.27;;;2.93;;
16037;SDS011;8123;50.906;6.172;2023-05-10T14:52:48;3.17;;;2.30;;
16037;SDS011;8123;50.906;6.172;2023-05-10T14:55:15;2.90;;;2.70;;
16037;SDS011;8123;50.906;6.172;2023-05-10T14:57:40;3.90;;;3.60;;
16037;SDS011;8123;50.906;6.172;2023-05-10T15:00:06;3.10;;;2.80;;
16037;SDS011;8123;50.906;6.172;2023-05-10T15:02:32;3.03;;;2.70;;
16037;SDS011;8123;50.906;6.172;2023-05-10T15:04:58;3.07;;;2.80;;
16037;SDS011;8123;50.906;6.172;2023-05-10T15:07:24;3.30;;;3.00;;
16037;SDS011;8123;50.906;6.172;2023-05-10T15:09:50;3.27;;;3.07;;
16037;SDS011;8123;50.906;6.172;2023-05-10T15:12:16;3.70;;;3.30;;
16037;SDS011;8123;50.906;6.172;2023-05-10T15:14:42;3.23;;;3.03;;
16037;SDS011;8123;50.906;6.172;2023-05-10T15:17:08;8.00;;;4.20;;